Time,TemperatureF,DewpointF,PressureIn,WindDirection,WindDirectionDegrees,WindSpeedMPH,WindSpeedGustMPH,Humidity,HourlyPrecipIn,Conditions,Clouds,dailyrainin,SoftwareType,DateUTC
2013-05-30 00:01:00,65.5,63.6,29.63,ENE,67,0.0,-999.0,93,-99.99,,,-99.99,,2013-05-30 04:01:00,
2013-05-30 00:02:00,65.5,63.6,29.66,ENE,67,0.0,-999.0,93,-99.99,,,-99.99,,2013-05-30 04:02:00,
2013-05-30 00:05:00,65.3,63.4,29.66,ENE,67,0.0,-999.0,93,-99.99,,,-99.99,,2013-05-30 04:05:00,
2013-05-30 00:07:00,65.3,63.4,29.66,ENE,67,0.0,-999.0,93,-99.99,,,-99.99,,2013-05-30 04:07:00,
2013-05-30 00:08:00,65.3,63.4,29.66,ENE,67,0.0,-999.0,93,-99.99,,,-99.99,,2013-05-30 04:08:00,
2013-05-30 00:13:00,65.3,63.4,29.66,ENE,67,0.0,-999.0,93,-99.99,,,-99.99,,2013-05-30 04:13:00,
2013-05-30 00:18:00,65.1,63.5,29.66,ENE,67,0.0,-999.0,94,-99.99,,,-99.99,,2013-05-30 04:18:00,
2013-05-30 00:23:00,65.1,63.2,29.66,ENE,67,0.0,-999.0,93,-99.99,,,-99.99,,2013-05-30 04:23:00,
2013-05-30 00:28:00,65.1,63.5,29.66,ENE,67,0.0,-999.0,94,-99.99,,,-99.99,,2013-05-30 04:28:00,
2013-05-30 00:33:00,65.1,63.5,29.63,ENE,67,0.0,-999.0,94,-99.99,,,-99.99,,2013-05-30 04:33:00,
2013-05-30 00:38:00,64.9,63.3,29.63,ENE,67,0.0,-999.0,94,-99.99,,,-99.99,,2013-05-30 04:38:00,
2013-05-30 00:43:00,64.9,63.3,29.63,ENE,67,0.0,-999.0,94,-99.99,,,-99.99,,2013-05-30 04:43:00,
2013-05-30 00:48:00,64.8,63.5,29.66,ENE,67,0.0,-999.0,95,-99.99,,,-99.99,,2013-05-30 04:48:00,
2013-05-30 00:54:00,64.6,63.3,29.66,ENE,67,0.0,-999.0,95,-99.99,,,-99.99,,2013-05-30 04:54:00,
2013-05-30 00:59:00,64.4,63.1,29.66,ENE,67,0.0,-999.0,95,-99.99,,,-99.99,,2013-05-30 04:59:00,
2013-05-30 01:04:00,64.4,63.1,29.66,ENE,67,0.0,-999.0,95,-99.99,,,-99.99,,2013-05-30 05:04:00,
2013-05-30 01:09:00,64.2,63.2,29.66,ENE,67,0.0,-999.0,96,-99.99,,,-99.99,,2013-05-30 05:09:00,
2013-05-30 01:14:00,64.0,63.0,29.66,ENE,67,0.0,-999.0,96,-99.99,,,-99.99,,2013-05-30 05:14:00,
2013-05-30 01:19:00,63.9,62.9,29.66,ENE,67,0.0,-999.0,96,-99.99,,,-99.99,,2013-05-30 05:19:00,
2013-05-30 01:24:00,63.9,62.9,29.66,ENE,67,0.0,-999.0,96,-99.99,,,-99.99,,2013-05-30 05:24:00,
2013-05-30 01:29:00,63.7,62.7,29.66,ENE,67,0.0,-999.0,96,-99.99,,,-99.99,,2013-05-30 05:29:00,
2013-05-30 01:34:00,63.7,62.7,29.66,ENE,67,0.0,-999.0,96,-99.99,,,-99.99,,2013-05-30 05:34:00,
2013-05-30 01:40:00,63.5,62.5,29.66,ENE,67,0.0,-999.0,96,-99.99,,,-99.99,,2013-05-30 05:40:00,
2013-05-30 01:45:00,63.5,62.8,29.66,ENE,67,0.0,-999.0,97,-99.99,,,-99.99,,2013-05-30 05:45:00,
2013-05-30 01:50:00,63.3,62.6,29.66,ENE,67,0.0,-999.0,97,-99.99,,,-99.99,,2013-05-30 05:50:00,
2013-05-30 01:56:00,63.3,62.6,29.66,ENE,67,0.0,-999.0,97,-99.99,,,-99.99,,2013-05-30 05:56:00,
2013-05-30 02:01:00,63.1,62.4,29.66,ENE,67,0.0,-999.0,97,-99.99,,,-99.99,,2013-05-30 06:01:00,
2013-05-30 02:06:00,63.1,62.4,29.66,ENE,67,0.0,-999.0,97,-99.99,,,-99.99,,2013-05-30 06:06:00,
2013-05-30 02:11:00,63.0,62.3,29.66,ENE,67,0.0,-999.0,97,-99.99,,,-99.99,,2013-05-30 06:11:00,
2013-05-30 02:16:00,63.0,62.3,29.66,ENE,67,0.0,-999.0,97,-99.99,,,-99.99,,2013-05-30 06:16:00,
2013-05-30 02:21:00,63.0,62.3,29.66,ENE,67,0.0,-999.0,97,-99.99,,,-99.99,,2013-05-30 06:21:00,
2013-05-30 02:26:00,63.0,62.3,29.66,ENE,67,0.0,-999.0,97,-99.99,,,-99.99,,2013-05-30 06:26:00,
2013-05-30 02:31:00,63.0,62.3,29.66,ENE,67,0.0,-999.0,97,-99.99,,,-99.99,,2013-05-30 06:31:00,
2013-05-30 02:36:00,62.8,62.1,29.66,ENE,67,0.0,-999.0,97,-99.99,,,-99.99,,2013-05-30 06:36:00,
2013-05-30 02:41:00,62.8,62.1,29.66,SSE,157,1.6,-999.0,97,-99.99,,,-99.99,,2013-05-30 06:41:00,
2013-05-30 02:46:00,62.8,62.1,29.66,SSE,157,0.0,-999.0,97,-99.99,,,-99.99,,2013-05-30 06:46:00,
2013-05-30 02:51:00,62.6,62.2,29.66,SSE,157,0.0,-999.0,98,-99.99,,,-99.99,,2013-05-30 06:51:00,
2013-05-30 02:56:00,62.6,62.2,29.66,SSE,157,0.0,-999.0,98,-99.99,,,-99.99,,2013-05-30 06:56:00,
2013-05-30 03:01:00,62.6,62.2,29.66,SSE,157,0.0,-999.0,98,-99.99,,,-99.99,,2013-05-30 07:01:00,
2013-05-30 03:06:00,62.4,62.0,29.66,SE,135,0.0,-999.0,98,-99.99,,,-99.99,,2013-05-30 07:06:00,
2013-05-30 03:11:00,62.2,61.8,29.66,SE,135,0.0,-999.0,98,-99.99,,,-99.99,,2013-05-30 07:11:00,
2013-05-30 03:16:00,62.2,61.8,29.66,SE,135,0.0,-999.0,98,-99.99,,,-99.99,,2013-05-30 07:16:00,
2013-05-30 03:21:00,62.1,61.7,29.66,SE,135,0.0,-999.0,98,-99.99,,,-99.99,,2013-05-30 07:21:00,
2013-05-30 03:26:00,62.1,61.7,29.66,SE,135,0.0,-999.0,98,-99.99,,,-99.99,,2013-05-30 07:26:00,
2013-05-30 03:31:00,61.9,61.5,29.66,SE,135,0.0,-999.0,98,-99.99,,,-99.99,,2013-05-30 07:31:00,
2013-05-30 03:36:00,61.9,61.5,29.66,SE,135,0.0,-999.0,98,-99.99,,,-99.99,,2013-05-30 07:36:00,
2013-05-30 03:41:00,61.7,61.3,29.66,SE,135,0.0,-999.0,98,-99.99,,,-99.99,,2013-05-30 07:41:00,
2013-05-30 03:47:00,61.7,61.3,29.66,SE,135,0.0,-999.0,98,-99.99,,,-99.99,,2013-05-30 07:47:00,
2013-05-30 03:52:00,61.7,61.3,29.66,SE,135,0.0,-999.0,98,-99.99,,,-99.99,,2013-05-30 07:52:00,
2013-05-30 03:57:00,61.5,61.1,29.66,SE,135,0.0,-999.0,98,-99.99,,,-99.99,,2013-05-30 07:57:00,
2013-05-30 04:03:00,61.5,61.1,29.66,SE,135,0.0,-999.0,98,-99.99,,,-99.99,,2013-05-30 08:03:00,
2013-05-30 04:08:00,61.3,60.9,29.66,SE,135,0.0,-999.0,98,-99.99,,,-99.99,,2013-05-30 08:08:00,
2013-05-30 04:13:00,61.3,60.9,29.66,SE,135,0.0,-999.0,98,-99.99,,,-99.99,,2013-05-30 08:13:00,
2013-05-30 04:19:00,61.3,60.9,29.66,SE,135,0.0,-999.0,98,-99.99,,,-99.99,,2013-05-30 08:19:00,
2013-05-30 04:24:00,61.2,60.8,29.66,SE,135,0.0,-999.0,98,-99.99,,,-99.99,,2013-05-30 08:24:00,
2013-05-30 04:29:00,61.2,60.8,29.66,SE,135,0.0,-999.0,98,-99.99,,,-99.99,,2013-05-30 08:29:00,
2013-05-30 04:34:00,61.2,60.8,29.66,SE,135,0.0,-999.0,98,-99.99,,,-99.99,,2013-05-30 08:34:00,
2013-05-30 04:39:00,61.2,60.8,29.66,ESE,112,0.0,-999.0,98,-99.99,,,-99.99,,2013-05-30 08:39:00,
2013-05-30 04:44:00,61.0,60.6,29.66,ESE,112,0.0,-999.0,98,-99.99,,,-99.99,,2013-05-30 08:44:00,
2013-05-30 04:50:00,60.8,60.4,29.66,ESE,112,0.0,-999.0,98,-99.99,,,-99.99,,2013-05-30 08:50:00,
2013-05-30 04:55:00,60.8,60.4,29.66,ESE,112,0.0,-999.0,98,-99.99,,,-99.99,,2013-05-30 08:55:00,
2013-05-30 05:00:00,60.6,60.2,29.66,ESE,112,0.0,-999.0,98,-99.99,,,-99.99,,2013-05-30 09:00:00,
2013-05-30 05:06:00,60.6,60.2,29.66,ESE,112,0.0,-999.0,98,-99.99,,,-99.99,,2013-05-30 09:06:00,
2013-05-30 05:11:00,60.8,60.4,29.66,ESE,112,0.0,-999.0,98,-99.99,,,-99.99,,2013-05-30 09:11:00,
2013-05-30 05:16:00,60.6,60.2,29.66,ESE,112,0.0,-999.0,98,-99.99,,,-99.99,,2013-05-30 09:16:00,
2013-05-30 05:22:00,60.6,60.2,29.66,ESE,112,0.0,-999.0,98,-99.99,,,-99.99,,2013-05-30 09:22:00,
2013-05-30 05:27:00,60.6,60.2,29.66,ESE,112,0.0,-999.0,98,-99.99,,,-99.99,,2013-05-30 09:27:00,
2013-05-30 05:32:00,60.6,60.2,29.66,ESE,112,0.0,-999.0,98,-99.99,,,-99.99,,2013-05-30 09:32:00,
2013-05-30 05:38:00,60.8,60.4,29.66,ESE,112,0.0,-999.0,98,-99.99,,,-99.99,,2013-05-30 09:38:00,
2013-05-30 05:43:00,60.8,60.4,29.66,ESE,112,0.0,-999.0,98,-99.99,,,-99.99,,2013-05-30 09:43:00,
2013-05-30 05:48:00,60.8,60.4,29.66,ESE,112,0.0,-999.0,98,-99.99,,,-99.99,,2013-05-30 09:48:00,
2013-05-30 05:54:00,60.8,60.4,29.66,ESE,112,0.0,-999.0,98,-99.99,,,-99.99,,2013-05-30 09:54:00,
2013-05-30 05:59:00,61.0,60.6,29.66,ESE,112,0.0,-999.0,98,-99.99,,,-99.99,,2013-05-30 09:59:00,
2013-05-30 06:04:00,61.2,60.8,29.69,ESE,112,0.0,-999.0,98,-99.99,,,-99.99,,2013-05-30 10:04:00,
2013-05-30 06:09:00,61.3,60.9,29.69,ESE,112,0.0,-999.0,98,-99.99,,,-99.99,,2013-05-30 10:09:00,
2013-05-30 06:14:00,61.5,61.1,29.69,ESE,112,0.0,-999.0,98,-99.99,,,-99.99,,2013-05-30 10:14:00,
2013-05-30 06:19:00,61.3,60.9,29.69,ESE,112,0.0,-999.0,98,-99.99,,,-99.99,,2013-05-30 10:19:00,
2013-05-30 06:24:00,61.3,60.9,29.69,ESE,112,0.0,-999.0,98,-99.99,,,-99.99,,2013-05-30 10:24:00,
2013-05-30 06:29:00,61.3,60.9,29.69,ESE,112,0.0,-999.0,98,-99.99,,,-99.99,,2013-05-30 10:29:00,
2013-05-30 06:34:00,61.9,61.5,29.69,ESE,112,0.0,-999.0,98,-99.99,,,-99.99,,2013-05-30 10:34:00,
2013-05-30 06:39:00,62.4,62.0,29.69,ESE,112,0.0,-999.0,98,-99.99,,,-99.99,,2013-05-30 10:39:00,
2013-05-30 06:44:00,63.0,62.6,29.69,ESE,112,0.0,-999.0,98,-99.99,,,-99.99,,2013-05-30 10:44:00,
2013-05-30 06:49:00,63.9,63.5,29.66,ESE,112,0.0,-999.0,98,-99.99,,,-99.99,,2013-05-30 10:49:00,
2013-05-30 06:55:00,64.9,64.5,29.66,ESE,112,0.0,-999.0,98,-99.99,,,-99.99,,2013-05-30 10:55:00,
2013-05-30 07:00:00,65.8,65.4,29.66,ESE,112,0.0,-999.0,98,-99.99,,,-99.99,,2013-05-30 11:00:00,
2013-05-30 07:05:00,66.9,66.5,29.69,ESE,112,0.0,-999.0,98,-99.99,,,-99.99,,2013-05-30 11:05:00,
2013-05-30 07:11:00,67.6,67.2,29.69,SSE,157,0.0,-999.0,98,-99.99,,,-99.99,,2013-05-30 11:11:00,
2013-05-30 07:16:00,68.2,67.8,29.69,SE,135,0.0,-999.0,98,-99.99,,,-99.99,,2013-05-30 11:16:00,
2013-05-30 07:21:00,68.5,67.8,29.69,ENE,67,0.0,-999.0,97,-99.99,,,-99.99,,2013-05-30 11:21:00,
2013-05-30 07:27:00,69.3,68.3,29.69,ENE,67,0.0,-999.0,96,-99.99,,,-99.99,,2013-05-30 11:27:00,
2013-05-30 07:32:00,69.4,68.1,29.69,West,270,0.0,-999.0,95,-99.99,,,-99.99,,2013-05-30 11:32:00,
2013-05-30 07:37:00,69.6,68.0,29.69,West,270,0.0,-999.0,94,-99.99,,,-99.99,,2013-05-30 11:37:00,
2013-05-30 07:42:00,70.5,68.6,29.69,ESE,112,0.0,-999.0,93,-99.99,,,-99.99,,2013-05-30 11:42:00,
2013-05-30 07:47:00,71.4,69.5,29.69,ESE,112,0.0,-999.0,93,-99.99,,,-99.99,,2013-05-30 11:47:00,
2013-05-30 07:52:00,72.5,69.9,29.69,NNE,22,0.0,-999.0,91,-99.99,,,-99.99,,2013-05-30 11:52:00,
2013-05-30 07:58:00,73.0,69.5,29.69,NNE,22,0.0,-999.0,88,-99.99,,,-99.99,,2013-05-30 11:58:00,
2013-05-30 08:03:00,73.2,69.3,29.69,NNE,22,0.0,-999.0,87,-99.99,,,-99.99,,2013-05-30 12:03:00,
2013-05-30 08:08:00,73.0,68.5,29.69,ENE,67,0.0,-999.0,85,-99.99,,,-99.99,,2013-05-30 12:08:00,
2013-05-30 08:14:00,72.9,68.0,29.69,ENE,67,0.0,-999.0,84,-99.99,,,-99.99,,2013-05-30 12:14:00,
2013-05-30 08:19:00,72.9,67.7,29.69,NNW,337,0.0,-999.0,83,-99.99,,,-99.99,,2013-05-30 12:19:00,
2013-05-30 08:24:00,72.7,67.5,29.69,WSW,247,0.0,-999.0,83,-99.99,,,-99.99,,2013-05-30 12:24:00,
2013-05-30 08:30:00,72.9,68.0,29.69,NNE,22,0.0,-999.0,84,-99.99,,,-99.99,,2013-05-30 12:30:00,
2013-05-30 08:35:00,73.0,68.5,29.69,NNE,22,0.0,-999.0,85,-99.99,,,-99.99,,2013-05-30 12:35:00,
2013-05-30 08:40:00,73.2,68.6,29.69,NNW,337,0.0,-999.0,85,-99.99,,,-99.99,,2013-05-30 12:40:00,
2013-05-30 08:45:00,73.6,68.3,29.69,NNW,337,0.0,-999.0,83,-99.99,,,-99.99,,2013-05-30 12:45:00,
2013-05-30 08:50:00,73.6,68.0,29.72,NNW,337,0.0,-999.0,82,-99.99,,,-99.99,,2013-05-30 12:50:00,
2013-05-30 08:55:00,73.6,67.3,29.72,NNW,337,0.0,-999.0,80,-99.99,,,-99.99,,2013-05-30 12:55:00,
2013-05-30 09:00:00,73.9,67.6,29.72,ENE,67,0.0,-999.0,80,-99.99,,,-99.99,,2013-05-30 13:00:00,
2013-05-30 09:05:00,74.3,67.6,29.72,North,0,2.0,-999.0,79,-99.99,,,-99.99,,2013-05-30 13:05:00,
2013-05-30 09:10:00,74.7,67.6,29.72,North,0,2.0,-999.0,78,-99.99,,,-99.99,,2013-05-30 13:10:00,
2013-05-30 09:16:00,75.2,67.7,29.72,South,180,0.0,-999.0,77,-99.99,,,-99.99,,2013-05-30 13:16:00,
2013-05-30 09:21:00,75.7,67.5,29.69,NNW,337,0.0,-999.0,75,-99.99,,,-99.99,,2013-05-30 13:21:00,
2013-05-30 09:26:00,76.3,68.4,29.69,NNW,337,0.0,-999.0,76,-99.99,,,-99.99,,2013-05-30 13:26:00,
2013-05-30 09:31:00,76.6,67.9,29.69,NNW,337,0.0,-999.0,74,-99.99,,,-99.99,,2013-05-30 13:31:00,
2013-05-30 09:36:00,76.6,67.1,29.69,ENE,67,0.0,-999.0,72,-99.99,,,-99.99,,2013-05-30 13:36:00,
2013-05-30 09:41:00,77.5,68.0,29.69,ENE,67,0.0,-999.0,72,-99.99,,,-99.99,,2013-05-30 13:41:00,
2013-05-30 09:46:00,78.3,68.4,29.69,ENE,67,0.0,-999.0,71,-99.99,,,-99.99,,2013-05-30 13:46:00,
2013-05-30 09:51:00,78.3,67.6,29.69,ENE,67,0.0,-999.0,69,-99.99,,,-99.99,,2013-05-30 13:51:00,
2013-05-30 09:56:00,78.6,67.4,29.69,ENE,67,0.0,-999.0,68,-99.99,,,-99.99,,2013-05-30 13:56:00,
2013-05-30 10:02:00,79.0,67.4,29.69,ENE,67,0.0,-999.0,67,-99.99,,,-99.99,,2013-05-30 14:02:00,
2013-05-30 10:07:00,79.5,67.0,29.69,East,90,0.0,-999.0,65,-99.99,,,-99.99,,2013-05-30 14:07:00,
2013-05-30 10:12:00,79.7,67.2,29.69,East,90,0.0,-999.0,65,-99.99,,,-99.99,,2013-05-30 14:12:00,
2013-05-30 10:17:00,79.7,67.6,29.69,East,90,0.0,-999.0,66,-99.99,,,-99.99,,2013-05-30 14:17:00,
2013-05-30 10:22:00,80.1,68.0,29.69,East,90,0.0,-999.0,66,-99.99,,,-99.99,,2013-05-30 14:22:00,
2013-05-30 10:27:00,79.9,66.0,29.69,East,90,0.0,-999.0,62,-99.99,,,-99.99,,2013-05-30 14:27:00,
2013-05-30 10:32:00,80.1,67.1,29.69,East,90,0.0,-999.0,64,-99.99,,,-99.99,,2013-05-30 14:32:00,
2013-05-30 10:37:00,80.6,67.6,29.69,East,90,0.0,-999.0,64,-99.99,,,-99.99,,2013-05-30 14:37:00,
2013-05-30 10:42:00,80.6,67.6,29.69,East,90,0.0,-999.0,64,-99.99,,,-99.99,,2013-05-30 14:42:00,
2013-05-30 10:47:00,80.8,66.4,29.69,SSE,157,0.0,-999.0,61,-99.99,,,-99.99,,2013-05-30 14:47:00,
2013-05-30 10:52:00,81.0,67.0,29.69,ESE,112,0.9,-999.0,62,-99.99,,,-99.99,,2013-05-30 14:52:00,
2013-05-30 10:57:00,81.3,65.9,29.69,ESE,112,0.9,-999.0,59,-99.99,,,-99.99,,2013-05-30 14:57:00,
2013-05-30 11:02:00,81.9,66.9,29.69,ESE,112,0.9,-999.0,60,-99.99,,,-99.99,,2013-05-30 15:02:00,
2013-05-30 11:07:00,82.0,66.1,29.69,ESE,112,0.9,-999.0,58,-99.99,,,-99.99,,2013-05-30 15:07:00,
2013-05-30 11:12:00,82.4,67.4,29.69,ESE,112,0.9,-999.0,60,-99.99,,,-99.99,,2013-05-30 15:12:00,
2013-05-30 11:17:00,82.8,68.3,29.69,ESE,112,0.9,-999.0,61,-99.99,,,-99.99,,2013-05-30 15:17:00,
2013-05-30 11:22:00,83.1,67.1,29.69,ESE,112,0.9,-999.0,58,-99.99,,,-99.99,,2013-05-30 15:22:00,
2013-05-30 11:27:00,83.5,67.5,29.69,ESE,112,0.9,-999.0,58,-99.99,,,-99.99,,2013-05-30 15:27:00,
2013-05-30 11:32:00,83.8,68.2,29.69,ESE,112,0.9,-999.0,59,-99.99,,,-99.99,,2013-05-30 15:32:00,
2013-05-30 11:38:00,83.7,65.1,29.69,ESE,112,0.9,-999.0,53,-99.99,,,-99.99,,2013-05-30 15:38:00,
2013-05-30 11:43:00,83.8,65.7,29.69,ESE,112,0.9,-999.0,54,-99.99,,,-99.99,,2013-05-30 15:43:00,
2013-05-30 11:48:00,84.2,66.6,29.69,ESE,112,0.9,-999.0,55,-99.99,,,-99.99,,2013-05-30 15:48:00,
2013-05-30 11:53:00,84.9,66.2,29.69,ESE,112,0.9,-999.0,53,-99.99,,,-99.99,,2013-05-30 15:53:00,
2013-05-30 11:58:00,84.9,65.6,29.69,ESE,112,0.9,-999.0,52,-99.99,,,-99.99,,2013-05-30 15:58:00,
2013-05-30 12:03:00,84.9,66.2,29.69,ESE,112,0.9,-999.0,53,-99.99,,,-99.99,,2013-05-30 16:03:00,
2013-05-30 12:08:00,85.6,67.9,29.69,ESE,112,0.9,-999.0,55,-99.99,,,-99.99,,2013-05-30 16:08:00,
2013-05-30 12:13:00,85.8,66.5,29.69,ESE,112,0.9,-999.0,52,-99.99,,,-99.99,,2013-05-30 16:13:00,
2013-05-30 12:18:00,86.2,67.4,29.69,ESE,112,0.9,-999.0,53,-99.99,,,-99.99,,2013-05-30 16:18:00,
2013-05-30 12:23:00,86.9,67.5,29.69,SE,135,0.0,-999.0,52,-99.99,,,-99.99,,2013-05-30 16:23:00,
2013-05-30 12:28:00,87.1,67.7,29.69,SE,135,0.0,-999.0,52,-99.99,,,-99.99,,2013-05-30 16:28:00,
2013-05-30 12:33:00,87.3,67.8,29.69,SE,135,0.0,-999.0,52,-99.99,,,-99.99,,2013-05-30 16:33:00,
2013-05-30 12:38:00,87.3,65.5,29.69,SE,135,0.0,-999.0,48,-99.99,,,-99.99,,2013-05-30 16:38:00,
2013-05-30 12:43:00,87.4,66.8,29.69,SE,135,0.0,-999.0,50,-99.99,,,-99.99,,2013-05-30 16:43:00,
2013-05-30 12:48:00,87.4,68.5,29.69,SE,135,0.0,-999.0,53,-99.99,,,-99.99,,2013-05-30 16:48:00,
2013-05-30 12:53:00,87.6,68.7,29.69,SE,135,0.0,-999.0,53,-99.99,,,-99.99,,2013-05-30 16:53:00,
2013-05-30 12:58:00,87.8,68.9,29.69,SE,135,0.0,-999.0,53,-99.99,,,-99.99,,2013-05-30 16:58:00,
2013-05-30 13:03:00,87.8,67.2,29.69,SE,135,0.0,-999.0,50,-99.99,,,-99.99,,2013-05-30 17:03:00,
2013-05-30 13:08:00,88.2,67.5,29.69,SE,135,0.0,-999.0,50,-99.99,,,-99.99,,2013-05-30 17:08:00,
2013-05-30 13:14:00,88.3,64.6,29.69,SE,135,0.0,-999.0,45,-99.99,,,-99.99,,2013-05-30 17:14:00,
2013-05-30 13:19:00,88.9,65.8,29.69,SE,135,0.0,-999.0,46,-99.99,,,-99.99,,2013-05-30 17:19:00,
2013-05-30 13:24:00,89.1,64.7,29.69,SE,135,0.0,-999.0,44,-99.99,,,-99.99,,2013-05-30 17:24:00,
2013-05-30 13:29:00,89.1,64.0,29.69,SE,135,0.0,-999.0,43,-99.99,,,-99.99,,2013-05-30 17:29:00,
2013-05-30 13:34:00,89.8,65.3,29.69,SE,135,0.0,-999.0,44,-99.99,,,-99.99,,2013-05-30 17:34:00,
2013-05-30 13:39:00,90.5,68.5,29.69,SE,135,0.0,-999.0,48,-99.99,,,-99.99,,2013-05-30 17:39:00,
2013-05-30 13:44:00,90.5,65.3,29.69,SE,135,0.0,-999.0,43,-99.99,,,-99.99,,2013-05-30 17:44:00,
2013-05-30 13:49:00,90.7,64.8,29.66,SE,135,0.0,-999.0,42,-99.99,,,-99.99,,2013-05-30 17:49:00,
2013-05-30 13:54:00,90.0,66.1,29.66,SE,135,0.0,-999.0,45,-99.99,,,-99.99,,2013-05-30 17:54:00,
2013-05-30 14:00:00,89.6,63.1,29.66,SE,135,0.0,-999.0,41,-99.99,,,-99.99,,2013-05-30 18:00:00,
2013-05-30 14:05:00,89.4,63.6,29.66,SE,135,0.0,-999.0,42,-99.99,,,-99.99,,2013-05-30 18:05:00,
2013-05-30 14:10:00,89.1,62.7,29.66,SE,135,0.0,-999.0,41,-99.99,,,-99.99,,2013-05-30 18:10:00,
2013-05-30 14:15:00,89.4,63.6,29.66,SE,135,0.0,-999.0,42,-99.99,,,-99.99,,2013-05-30 18:15:00,
2013-05-30 14:20:00,90.1,62.9,29.66,SE,135,0.0,-999.0,40,-99.99,,,-99.99,,2013-05-30 18:20:00,
2013-05-30 14:25:00,90.1,62.9,29.66,SE,135,0.0,-999.0,40,-99.99,,,-99.99,,2013-05-30 18:25:00,
2013-05-30 14:30:00,90.3,62.3,29.66,SE,135,0.0,-999.0,39,-99.99,,,-99.99,,2013-05-30 18:30:00,
2013-05-30 14:35:00,90.5,62.5,29.66,SE,135,0.0,-999.0,39,-99.99,,,-99.99,,2013-05-30 18:35:00,
2013-05-30 14:40:00,90.9,63.6,29.66,SE,135,0.0,-999.0,40,-99.99,,,-99.99,,2013-05-30 18:40:00,
2013-05-30 14:45:00,91.0,63.0,29.66,SE,135,0.0,-999.0,39,-99.99,,,-99.99,,2013-05-30 18:45:00,
2013-05-30 14:50:00,91.4,65.4,29.66,SE,135,0.0,-999.0,42,-99.99,,,-99.99,,2013-05-30 18:50:00,
2013-05-30 14:55:00,91.4,64.7,29.66,SE,135,0.0,-999.0,41,-99.99,,,-99.99,,2013-05-30 18:55:00,
2013-05-30 15:00:00,91.0,61.5,29.66,SE,135,0.0,-999.0,37,-99.99,,,-99.99,,2013-05-30 19:00:00,
2013-05-30 15:05:00,91.6,64.2,29.66,SE,135,0.0,-999.0,40,-99.99,,,-99.99,,2013-05-30 19:05:00,
2013-05-30 15:10:00,91.4,61.8,29.66,SE,135,0.0,-999.0,37,-99.99,,,-99.99,,2013-05-30 19:10:00,
2013-05-30 15:16:00,91.4,64.0,29.66,SE,135,0.0,-999.0,40,-99.99,,,-99.99,,2013-05-30 19:16:00,
2013-05-30 15:21:00,91.4,63.3,29.66,SE,135,0.0,-999.0,39,-99.99,,,-99.99,,2013-05-30 19:21:00,
2013-05-30 15:26:00,91.4,62.6,29.66,SE,135,0.0,-999.0,38,-99.99,,,-99.99,,2013-05-30 19:26:00,
2013-05-30 15:31:00,91.8,63.7,29.66,SE,135,0.0,-999.0,39,-99.99,,,-99.99,,2013-05-30 19:31:00,
2013-05-30 15:36:00,92.1,64.7,29.66,SE,135,0.0,-999.0,40,-99.99,,,-99.99,,2013-05-30 19:36:00,
2013-05-30 15:41:00,92.3,64.8,29.66,SE,135,0.0,-999.0,40,-99.99,,,-99.99,,2013-05-30 19:41:00,
2013-05-30 15:46:00,92.7,65.2,29.66,SE,135,0.0,-999.0,40,-99.99,,,-99.99,,2013-05-30 19:46:00,
2013-05-30 15:51:00,92.7,64.5,29.63,SE,135,0.0,-999.0,39,-99.99,,,-99.99,,2013-05-30 19:51:00,
2013-05-30 15:56:00,92.5,62.0,29.63,SE,135,0.0,-999.0,36,-99.99,,,-99.99,,2013-05-30 19:56:00,
2013-05-30 16:01:00,92.7,63.7,29.63,SE,135,0.0,-999.0,38,-99.99,,,-99.99,,2013-05-30 20:01:00,
2013-05-30 16:06:00,92.8,63.8,29.63,SE,135,0.0,-999.0,38,-99.99,,,-99.99,,2013-05-30 20:06:00,
2013-05-30 16:11:00,92.8,63.1,29.63,SE,135,0.0,-999.0,37,-99.99,,,-99.99,,2013-05-30 20:11:00,
2013-05-30 16:16:00,93.0,63.2,29.63,SE,135,0.0,-999.0,37,-99.99,,,-99.99,,2013-05-30 20:16:00,
2013-05-30 16:22:00,92.3,63.4,29.63,SE,135,0.0,-999.0,38,-99.99,,,-99.99,,2013-05-30 20:22:00,
2013-05-30 16:27:00,91.6,62.0,29.63,SE,135,0.0,-999.0,37,-99.99,,,-99.99,,2013-05-30 20:27:00,
2013-05-30 16:32:00,91.0,62.2,29.63,SE,135,0.0,-999.0,38,-99.99,,,-99.99,,2013-05-30 20:32:00,
2013-05-30 16:37:00,91.4,61.8,29.63,SE,135,0.0,-999.0,37,-99.99,,,-99.99,,2013-05-30 20:37:00,
2013-05-30 16:42:00,92.1,62.4,29.63,SE,135,0.0,-999.0,37,-99.99,,,-99.99,,2013-05-30 20:42:00,
2013-05-30 16:47:00,92.3,62.6,29.63,SE,135,0.0,-999.0,37,-99.99,,,-99.99,,2013-05-30 20:47:00,
2013-05-30 16:52:00,92.1,62.4,29.63,SE,135,0.0,-999.0,37,-99.99,,,-99.99,,2013-05-30 20:52:00,
2013-05-30 16:57:00,92.3,60.2,29.63,SE,135,0.0,-999.0,34,-99.99,,,-99.99,,2013-05-30 20:57:00,
2013-05-30 17:02:00,92.8,61.5,29.63,SE,135,0.0,-999.0,35,-99.99,,,-99.99,,2013-05-30 21:02:00,
2013-05-30 17:08:00,93.0,60.8,29.63,SE,135,0.0,-999.0,34,-99.99,,,-99.99,,2013-05-30 21:08:00,
2013-05-30 17:13:00,92.8,60.7,29.63,SE,135,0.0,-999.0,34,-99.99,,,-99.99,,2013-05-30 21:13:00,
2013-05-30 17:18:00,92.5,60.4,29.60,SE,135,0.0,-999.0,34,-99.99,,,-99.99,,2013-05-30 21:18:00,
2013-05-30 17:24:00,91.6,58.8,29.60,SE,135,0.0,-999.0,33,-99.99,,,-99.99,,2013-05-30 21:24:00,
2013-05-30 17:29:00,91.6,62.0,29.60,SE,135,0.0,-999.0,37,-99.99,,,-99.99,,2013-05-30 21:29:00,
2013-05-30 17:34:00,91.4,59.4,29.63,SE,135,0.0,-999.0,34,-99.99,,,-99.99,,2013-05-30 21:34:00,
2013-05-30 17:39:00,91.2,60.9,29.63,SE,135,0.0,-999.0,36,-99.99,,,-99.99,,2013-05-30 21:39:00,
2013-05-30 17:44:00,90.5,58.6,29.63,SE,135,0.0,-999.0,34,-99.99,,,-99.99,,2013-05-30 21:44:00,
2013-05-30 17:49:00,90.1,61.4,29.63,SE,135,0.0,-999.0,38,-99.99,,,-99.99,,2013-05-30 21:49:00,
2013-05-30 17:54:00,90.1,61.4,29.63,SE,135,0.0,-999.0,38,-99.99,,,-99.99,,2013-05-30 21:54:00,
2013-05-30 17:59:00,89.4,60.8,29.63,SE,135,0.0,-999.0,38,-99.99,,,-99.99,,2013-05-30 21:59:00,
2013-05-30 18:04:00,88.9,61.1,29.63,SE,135,0.0,-999.0,39,-99.99,,,-99.99,,2013-05-30 22:04:00,
2013-05-30 18:10:00,87.8,60.1,29.63,SE,135,0.0,-999.0,39,-99.99,,,-99.99,,2013-05-30 22:10:00,
2013-05-30 18:15:00,87.1,59.5,29.63,SE,135,0.0,-999.0,39,-99.99,,,-99.99,,2013-05-30 22:15:00,
2013-05-30 18:20:00,86.4,59.5,29.63,SE,135,0.0,-999.0,40,-99.99,,,-99.99,,2013-05-30 22:20:00,
2013-05-30 18:25:00,85.8,59.7,29.63,SE,135,0.0,-999.0,41,-99.99,,,-99.99,,2013-05-30 22:25:00,
2013-05-30 18:30:00,85.5,59.4,29.63,SE,135,0.0,-999.0,41,-99.99,,,-99.99,,2013-05-30 22:30:00,
2013-05-30 18:35:00,84.9,59.6,29.63,SE,135,0.0,-999.0,42,-99.99,,,-99.99,,2013-05-30 22:35:00,
2013-05-30 18:40:00,84.6,59.9,29.63,SE,135,0.0,-999.0,43,-99.99,,,-99.99,,2013-05-30 22:40:00,
2013-05-30 18:45:00,84.2,60.2,29.63,SE,135,0.0,-999.0,44,-99.99,,,-99.99,,2013-05-30 22:45:00,
2013-05-30 18:50:00,83.8,61.1,29.63,SE,135,0.0,-999.0,46,-99.99,,,-99.99,,2013-05-30 22:50:00,
2013-05-30 18:55:00,83.5,60.8,29.63,SE,135,0.0,-999.0,46,-99.99,,,-99.99,,2013-05-30 22:55:00,
2013-05-30 19:00:00,83.1,61.1,29.63,SE,135,0.0,-999.0,47,-99.99,,,-99.99,,2013-05-30 23:00:00,
2013-05-30 19:05:00,82.8,60.8,29.63,SE,135,0.0,-999.0,47,-99.99,,,-99.99,,2013-05-30 23:05:00,
2013-05-30 19:10:00,82.6,61.2,29.63,SE,135,0.0,-999.0,48,-99.99,,,-99.99,,2013-05-30 23:10:00,
2013-05-30 19:15:00,82.0,61.8,29.63,NNE,22,0.0,-999.0,50,-99.99,,,-99.99,,2013-05-30 23:15:00,
2013-05-30 19:20:00,81.7,62.1,29.63,NNE,22,0.0,-999.0,51,-99.99,,,-99.99,,2013-05-30 23:20:00,
2013-05-30 19:25:00,81.3,61.7,29.63,SE,135,0.0,-999.0,51,-99.99,,,-99.99,,2013-05-30 23:25:00,
2013-05-30 19:31:00,81.1,62.1,29.63,SE,135,0.0,-999.0,52,-99.99,,,-99.99,,2013-05-30 23:31:00,
2013-05-30 19:36:00,81.0,62.5,29.63,SE,135,0.0,-999.0,53,-99.99,,,-99.99,,2013-05-30 23:36:00,
2013-05-30 19:41:00,80.8,62.9,29.63,WSW,247,0.0,-999.0,54,-99.99,,,-99.99,,2013-05-30 23:41:00,
2013-05-30 19:46:00,80.4,63.0,29.63,SSE,157,0.0,-999.0,55,-99.99,,,-99.99,,2013-05-30 23:46:00,
2013-05-30 19:51:00,80.2,62.8,29.63,NW,315,0.0,-999.0,55,-99.99,,,-99.99,,2013-05-30 23:51:00,
2013-05-30 19:56:00,79.7,62.4,29.63,SSE,157,0.0,-999.0,55,-99.99,,,-99.99,,2013-05-30 23:56:00,
2013-05-30 20:01:00,79.3,63.0,29.63,SSE,157,0.0,-999.0,57,-99.99,,,-99.99,,2013-05-31 00:01:00,
2013-05-30 20:06:00,79.0,62.7,29.63,SSE,157,0.0,-999.0,57,-99.99,,,-99.99,,2013-05-31 00:06:00,
2013-05-30 20:11:00,78.8,63.0,29.63,SW,225,0.0,-999.0,58,-99.99,,,-99.99,,2013-05-31 00:11:00,
2013-05-30 20:16:00,78.4,63.2,29.63,SW,225,0.0,-999.0,59,-99.99,,,-99.99,,2013-05-31 00:16:00,
2013-05-30 20:21:00,78.1,62.9,29.63,South,180,0.0,-999.0,59,-99.99,,,-99.99,,2013-05-31 00:21:00,
2013-05-30 20:26:00,77.9,62.7,29.63,South,180,0.0,-999.0,59,-99.99,,,-99.99,,2013-05-31 00:26:00,
2013-05-30 20:31:00,77.7,63.0,29.63,South,180,0.0,-999.0,60,-99.99,,,-99.99,,2013-05-31 00:31:00,
2013-05-30 20:36:00,77.4,62.7,29.66,South,180,0.0,-999.0,60,-99.99,,,-99.99,,2013-05-31 00:36:00,
2013-05-30 20:41:00,77.0,63.2,29.66,SSE,157,0.0,-999.0,62,-99.99,,,-99.99,,2013-05-31 00:41:00,
2013-05-30 20:47:00,76.6,62.9,29.63,SSE,157,0.0,-999.0,62,-99.99,,,-99.99,,2013-05-31 00:47:00,
2013-05-30 20:52:00,76.3,63.5,29.63,SSE,157,0.0,-999.0,64,-99.99,,,-99.99,,2013-05-31 00:52:00,
2013-05-30 20:57:00,75.9,63.5,29.63,West,270,0.0,-999.0,65,-99.99,,,-99.99,,2013-05-31 00:57:00,
2013-05-30 21:02:00,75.6,63.3,29.66,SSE,157,0.0,-999.0,65,-99.99,,,-99.99,,2013-05-31 01:02:00,
2013-05-30 21:07:00,75.2,63.7,29.66,SSE,157,0.0,-999.0,67,-99.99,,,-99.99,,2013-05-31 01:07:00,
2013-05-30 21:12:00,75.0,64.0,29.66,SSE,157,1.3,-999.0,68,-99.99,,,-99.99,,2013-05-31 01:12:00,
2013-05-30 21:18:00,74.7,63.7,29.66,SSE,157,0.0,-999.0,68,-99.99,,,-99.99,,2013-05-31 01:18:00,
2013-05-30 21:23:00,74.7,65.3,29.66,SSE,157,0.0,-999.0,72,-99.99,,,-99.99,,2013-05-31 01:23:00,
2013-05-30 21:28:00,74.5,64.3,29.66,SSE,157,0.0,-999.0,70,-99.99,,,-99.99,,2013-05-31 01:28:00,
2013-05-30 21:34:00,74.3,64.1,29.66,South,180,0.0,-999.0,70,-99.99,,,-99.99,,2013-05-31 01:34:00,
2013-05-30 21:39:00,74.3,64.1,29.66,East,90,0.0,-999.0,70,-99.99,,,-99.99,,2013-05-31 01:39:00,
2013-05-30 21:44:00,73.9,63.7,29.66,SSE,157,2.9,-999.0,70,-99.99,,,-99.99,,2013-05-31 01:44:00,
2013-05-30 21:49:00,73.8,64.0,29.66,SSE,157,1.3,-999.0,71,-99.99,,,-99.99,,2013-05-31 01:49:00,
2013-05-30 21:54:00,73.6,64.2,29.66,SSE,157,2.0,-999.0,72,-99.99,,,-99.99,,2013-05-31 01:54:00,
2013-05-30 21:59:00,73.4,64.5,29.66,SSE,157,0.0,-999.0,73,-99.99,,,-99.99,,2013-05-31 01:59:00,
2013-05-30 22:05:00,73.0,64.5,29.66,West,270,0.0,-999.0,74,-99.99,,,-99.99,,2013-05-31 02:05:00,
2013-05-30 22:10:00,72.7,64.2,29.66,NNW,337,0.0,-999.0,74,-99.99,,,-99.99,,2013-05-31 02:10:00,
2013-05-30 22:15:00,72.5,64.0,29.66,East,90,2.5,-999.0,74,-99.99,,,-99.99,,2013-05-31 02:15:00,
2013-05-30 22:20:00,72.3,64.5,29.66,ESE,112,0.0,-999.0,76,-99.99,,,-99.99,,2013-05-31 02:20:00,
2013-05-30 22:25:00,72.1,64.0,29.66,ESE,112,0.0,-999.0,75,-99.99,,,-99.99,,2013-05-31 02:25:00,
2013-05-30 22:30:00,71.8,64.0,29.66,ESE,112,0.0,-999.0,76,-99.99,,,-99.99,,2013-05-31 02:30:00,
2013-05-30 22:36:00,71.6,64.2,29.66,ESE,112,0.0,-999.0,77,-99.99,,,-99.99,,2013-05-31 02:36:00,
2013-05-30 22:41:00,71.4,64.0,29.66,ESE,112,0.0,-999.0,77,-99.99,,,-99.99,,2013-05-31 02:41:00,
2013-05-30 22:46:00,71.1,63.7,29.66,ESE,112,0.0,-999.0,77,-99.99,,,-99.99,,2013-05-31 02:46:00,
2013-05-30 22:51:00,70.9,63.9,29.66,ESE,112,0.0,-999.0,78,-99.99,,,-99.99,,2013-05-31 02:51:00,
2013-05-30 22:56:00,70.7,63.7,29.66,ESE,112,0.0,-999.0,78,-99.99,,,-99.99,,2013-05-31 02:56:00,
2013-05-30 23:01:00,70.7,64.1,29.66,ESE,112,0.0,-999.0,79,-99.99,,,-99.99,,2013-05-31 03:01:00,
2013-05-30 23:07:00,70.3,63.7,29.66,ESE,112,0.0,-999.0,79,-99.99,,,-99.99,,2013-05-31 03:07:00,
2013-05-30 23:12:00,70.2,64.0,29.66,ESE,112,0.0,-999.0,80,-99.99,,,-99.99,,2013-05-31 03:12:00,
2013-05-30 23:17:00,70.2,64.0,29.66,ESE,112,0.0,-999.0,80,-99.99,,,-99.99,,2013-05-31 03:17:00,
2013-05-30 23:22:00,70.0,64.1,29.66,ESE,112,0.0,-999.0,81,-99.99,,,-99.99,,2013-05-31 03:22:00,
2013-05-30 23:27:00,69.8,63.9,29.66,ESE,112,0.0,-999.0,81,-99.99,,,-99.99,,2013-05-31 03:27:00,
2013-05-30 23:32:00,69.6,64.1,29.66,ESE,112,0.0,-999.0,82,-99.99,,,-99.99,,2013-05-31 03:32:00,
2013-05-30 23:37:00,69.4,63.9,29.66,ESE,112,0.0,-999.0,82,-99.99,,,-99.99,,2013-05-31 03:37:00,
2013-05-30 23:42:00,69.3,64.1,29.66,ESE,112,0.0,-999.0,83,-99.99,,,-99.99,,2013-05-31 03:42:00,
2013-05-30 23:47:00,69.1,63.9,29.66,ESE,112,0.0,-999.0,83,-99.99,,,-99.99,,2013-05-31 03:47:00,
2013-05-30 23:52:00,68.9,64.1,29.66,ESE,112,0.0,-999.0,84,-99.99,,,-99.99,,2013-05-31 03:52:00,
2013-05-30 23:58:00,68.7,63.9,29.66,ESE,112,0.0,-999.0,84,-99.99,,,-99.99,,2013-05-31 03:58:00,